createdAt,value
2022-11-24T00:01:17.683Z,5.50
2022-11-24T00:03:46.896Z,5.50
2022-11-24T00:06:17.130Z,5.50
2022-11-24T00:08:46.931Z,5.50
2022-11-24T00:11:17.423Z,5.50
2022-11-24T00:13:45.904Z,5.50
2022-11-24T00:16:15.479Z,5.50
2022-11-24T00:18:44.987Z,5.50
2022-11-24T00:21:13.548Z,5.50
2022-11-24T00:23:43.064Z,5.50
2022-11-24T00:26:13.562Z,5.50
2022-11-24T00:28:42.481Z,5.50
2022-11-24T00:31:17.913Z,5.50
2022-11-24T00:33:47.182Z,5.60
2022-11-24T00:36:16.126Z,5.50
2022-11-24T00:38:46.087Z,5.60
2022-11-24T00:41:14.408Z,5.60
2022-11-24T00:43:42.357Z,5.60
2022-11-24T00:46:10.445Z,5.60
2022-11-24T00:48:38.601Z,5.60
2022-11-24T00:51:08.838Z,5.60
2022-11-24T00:53:37.255Z,5.60
2022-11-24T00:56:07.577Z,5.60
2022-11-24T00:58:36.319Z,5.60
2022-11-24T01:01:06.023Z,5.60
2022-11-24T01:03:34.394Z,5.60
2022-11-24T01:06:06.306Z,5.60
2022-11-24T01:08:34.415Z,5.60
2022-11-24T01:11:12.347Z,5.60
2022-11-24T01:13:41.155Z,5.60
2022-11-24T01:16:15.940Z,5.60
2022-11-24T01:18:44.123Z,5.60
2022-11-24T01:21:12.275Z,5.60
2022-11-24T01:23:40.742Z,5.60
2022-11-24T01:26:11.667Z,5.70
2022-11-24T01:28:46.258Z,5.70
2022-11-24T01:31:15.995Z,5.70
2022-11-24T01:33:44.087Z,5.70
2022-11-24T01:36:12.374Z,5.70
2022-11-24T01:38:40.348Z,5.70
2022-11-24T01:41:12.261Z,5.70
2022-11-24T01:43:40.865Z,5.70
2022-11-24T01:46:17.740Z,5.70
2022-11-24T01:48:50.583Z,5.70
2022-11-24T01:51:23.230Z,5.70
2022-11-24T01:53:56.050Z,5.70
2022-11-24T01:56:25.674Z,5.70
2022-11-24T01:58:58.055Z,5.70
2022-11-24T02:01:26.551Z,5.70
2022-11-24T02:03:54.870Z,5.70
2022-11-24T02:06:26.511Z,5.70
2022-11-24T02:08:59.628Z,5.70
2022-11-24T02:11:37.242Z,5.70
2022-11-24T02:14:06.927Z,5.70
2022-11-24T02:16:36.512Z,5.70
2022-11-24T02:19:08.953Z,5.70
2022-11-24T02:21:37.063Z,5.70
2022-11-24T02:24:10.598Z,5.70
2022-11-24T02:26:44.583Z,5.70
2022-11-24T02:29:14.135Z,5.70
2022-11-24T02:31:46.850Z,5.60
2022-11-24T02:34:15.135Z,5.70
2022-11-24T02:36:43.167Z,5.60
2022-11-24T02:39:13.228Z,5.70
2022-11-24T02:41:45.804Z,5.70
2022-11-24T02:44:16.553Z,5.70
2022-11-24T02:46:44.769Z,5.70
2022-11-24T02:49:12.908Z,5.70
2022-11-24T02:51:40.909Z,5.70
2022-11-24T02:54:08.934Z,5.70
2022-11-24T02:56:36.961Z,5.70
2022-11-24T02:59:06.389Z,5.70
2022-11-24T03:01:34.433Z,5.70
2022-11-24T03:04:02.419Z,5.70
2022-11-24T03:06:30.447Z,5.70
2022-11-24T03:08:58.428Z,5.70
2022-11-24T03:11:26.532Z,5.70
2022-11-24T03:13:54.534Z,5.70
2022-11-24T03:16:24.010Z,5.70
2022-11-24T03:18:52.382Z,5.70
2022-11-24T03:21:20.573Z,5.70
2022-11-24T03:23:48.723Z,5.70
2022-11-24T03:26:19.404Z,5.70
2022-11-24T03:28:47.626Z,5.70
2022-11-24T03:31:16.336Z,5.70
2022-11-24T03:33:45.816Z,5.70
2022-11-24T03:36:13.912Z,5.70
2022-11-24T03:38:41.927Z,5.80
2022-11-24T03:41:10.418Z,5.70
2022-11-24T03:43:43.466Z,5.70
2022-11-24T03:46:12.771Z,5.70
2022-11-24T03:48:41.096Z,5.80
2022-11-24T03:51:11.821Z,5.70
2022-11-24T03:53:39.837Z,5.70
2022-11-24T03:56:08.311Z,5.80
2022-11-24T03:58:36.326Z,5.80
2022-11-24T04:01:04.386Z,5.70
2022-11-24T04:03:32.392Z,5.80
2022-11-24T04:06:00.422Z,5.80
2022-11-24T04:08:29.775Z,5.80
2022-11-24T04:10:57.798Z,5.80
2022-11-24T04:13:27.217Z,5.80
2022-11-24T04:15:55.401Z,5.80
2022-11-24T04:18:23.843Z,5.80
2022-11-24T04:20:52.634Z,5.80
2022-11-24T04:23:20.698Z,5.80
2022-11-24T04:25:50.064Z,5.80
2022-11-24T04:28:18.055Z,5.80
2022-11-24T04:30:46.035Z,5.80
2022-11-24T04:33:14.347Z,5.80
2022-11-24T04:35:42.322Z,5.80
2022-11-24T04:38:10.473Z,5.80
2022-11-24T04:40:38.972Z,5.80
2022-11-24T04:43:08.372Z,5.80
2022-11-24T04:45:36.597Z,5.80
2022-11-24T04:48:04.735Z,5.80
2022-11-24T04:50:32.764Z,5.80
2022-11-24T04:53:00.757Z,5.80
2022-11-24T04:55:28.799Z,5.90
2022-11-24T04:57:56.778Z,5.90
2022-11-24T05:00:26.184Z,5.90
2022-11-24T05:02:54.098Z,5.90
2022-11-24T05:05:22.055Z,5.90
2022-11-24T05:07:50.154Z,5.90
2022-11-24T05:10:36.631Z,5.90
2022-11-24T05:13:06.884Z,5.90
2022-11-24T05:15:37.643Z,5.90
2022-11-24T05:18:06.957Z,5.90
2022-11-24T05:20:35.449Z,5.90
2022-11-24T05:23:04.899Z,5.90
2022-11-24T05:25:33.117Z,5.90
2022-11-24T05:28:02.233Z,5.90
2022-11-24T05:30:30.495Z,5.90
2022-11-24T05:33:00.129Z,5.90
2022-11-24T05:35:28.091Z,6.00
2022-11-24T05:37:56.128Z,6.00
2022-11-24T05:40:24.126Z,6.00
2022-11-24T05:42:52.144Z,6.00
2022-11-24T05:45:22.487Z,6.00
2022-11-24T05:47:51.429Z,6.00
2022-11-24T05:50:22.652Z,6.00
2022-11-24T05:52:50.655Z,6.00
2022-11-24T05:55:20.436Z,6.00
2022-11-24T05:57:48.412Z,6.00
2022-11-24T06:00:20.080Z,6.00
2022-11-24T06:02:48.428Z,6.00
2022-11-24T06:05:16.723Z,6.00
2022-11-24T06:07:46.279Z,6.00
2022-11-24T06:10:14.568Z,6.00
2022-11-24T06:12:42.578Z,6.00
2022-11-24T06:15:11.303Z,6.00
2022-11-24T06:17:39.717Z,6.00
2022-11-24T06:20:09.628Z,5.90
2022-11-24T06:22:38.966Z,5.90
2022-11-24T06:25:09.461Z,5.90
2022-11-24T06:27:37.542Z,5.90
2022-11-24T06:30:06.662Z,5.80
2022-11-24T06:32:34.890Z,5.80
2022-11-24T06:35:03.138Z,5.80
2022-11-24T06:37:31.300Z,5.70
2022-11-24T06:39:59.598Z,5.70
2022-11-24T06:42:28.942Z,5.70
2022-11-24T06:44:56.937Z,5.60
2022-11-24T06:47:24.930Z,5.60
2022-11-24T06:49:52.904Z,5.60
2022-11-24T06:52:20.916Z,5.60
2022-11-24T06:54:48.958Z,5.50
2022-11-24T06:57:16.890Z,5.60
2022-11-24T06:59:46.273Z,5.50
2022-11-24T07:02:14.286Z,5.50
2022-11-24T07:04:42.237Z,5.50
2022-11-24T07:07:10.254Z,5.50
2022-11-24T07:09:38.332Z,5.50
2022-11-24T07:12:07.424Z,5.50
2022-11-24T07:14:36.323Z,5.50
2022-11-24T07:17:09.665Z,5.50
2022-11-24T07:19:38.284Z,5.50
2022-11-24T07:22:06.739Z,5.50
2022-11-24T07:24:35.375Z,5.50
2022-11-24T07:27:03.776Z,5.50
2022-11-24T07:29:32.055Z,5.50
2022-11-24T07:32:05.213Z,5.50
2022-11-24T07:34:35.227Z,5.50
2022-11-24T07:37:03.398Z,5.50
2022-11-24T07:39:31.465Z,5.50
2022-11-24T07:42:00.369Z,5.50
2022-11-24T07:44:28.422Z,5.50
2022-11-24T07:46:56.542Z,5.50
2022-11-24T07:49:24.580Z,5.50
2022-11-24T07:51:54.014Z,5.50
2022-11-24T07:54:22.044Z,5.50
2022-11-24T07:56:50.241Z,5.50
2022-11-24T07:59:19.350Z,5.50
2022-11-24T08:01:47.426Z,5.50
2022-11-24T08:04:15.553Z,5.50
2022-11-24T08:06:47.332Z,5.50
2022-11-24T08:09:16.907Z,5.50
2022-11-24T08:11:45.009Z,5.50
2022-11-24T08:14:13.064Z,5.50
2022-11-24T08:16:41.183Z,5.50
2022-11-24T08:19:10.905Z,5.50
2022-11-24T08:21:38.978Z,5.50
2022-11-24T08:24:08.444Z,5.50
2022-11-24T08:26:37.940Z,5.60
2022-11-24T08:29:06.066Z,5.60
2022-11-24T08:31:35.474Z,5.60
2022-11-24T08:34:05.499Z,5.60
2022-11-24T08:36:34.420Z,5.70
2022-11-24T08:39:03.289Z,5.70
2022-11-24T08:41:32.144Z,5.70
2022-11-24T08:44:01.545Z,5.70
2022-11-24T08:46:29.629Z,5.80
2022-11-24T08:48:57.810Z,5.80
2022-11-24T08:51:27.876Z,5.80
2022-11-24T08:53:58.155Z,5.90
2022-11-24T08:56:27.015Z,5.90
2022-11-24T08:58:55.123Z,6.00
2022-11-24T09:01:25.562Z,6.00
2022-11-24T09:03:53.847Z,6.10
2022-11-24T09:06:23.762Z,6.10
2022-11-24T09:08:51.992Z,6.10
2022-11-24T09:11:20.521Z,6.10
2022-11-24T09:13:48.601Z,6.10
2022-11-24T09:16:20.013Z,6.20
2022-11-24T09:18:55.793Z,6.10
2022-11-24T09:21:24.153Z,6.20
2022-11-24T09:23:54.291Z,6.20
2022-11-24T09:26:24.203Z,6.20
2022-11-24T09:28:54.566Z,6.20
2022-11-24T09:31:24.950Z,6.20
2022-11-24T09:33:55.061Z,6.20
2022-11-24T09:36:25.125Z,6.20
2022-11-24T09:38:56.882Z,6.20
2022-11-24T09:41:36.119Z,6.20
2022-11-24T09:44:10.591Z,6.30
2022-11-24T09:46:49.798Z,6.30
2022-11-24T09:49:28.055Z,6.30
2022-11-24T09:51:58.361Z,6.30
2022-11-24T09:54:29.695Z,6.40
2022-11-24T09:57:01.784Z,6.50
2022-11-24T09:59:29.959Z,6.50
2022-11-24T10:01:58.208Z,6.60
2022-11-24T10:04:31.091Z,6.70
2022-11-24T10:07:09.323Z,6.80
2022-11-24T10:09:56.112Z,6.90
2022-11-24T10:12:35.380Z,6.90
2022-11-24T10:15:18.862Z,7.00
2022-11-24T10:18:00.683Z,7.00
2022-11-24T10:20:43.323Z,7.10
2022-11-24T10:23:25.280Z,7.20
2022-11-24T10:25:57.758Z,7.20
2022-11-24T10:28:32.962Z,7.30
2022-11-24T10:31:16.975Z,7.40
2022-11-24T10:33:45.605Z,7.50
2022-11-24T10:36:21.597Z,7.50
2022-11-24T10:38:54.875Z,7.50
2022-11-24T10:41:27.521Z,7.60
2022-11-24T10:43:59.890Z,7.60
2022-11-24T10:46:31.552Z,7.60
2022-11-24T10:49:06.126Z,7.70
2022-11-24T10:51:54.055Z,7.70
2022-11-24T10:54:24.650Z,7.70
2022-11-24T10:56:54.882Z,7.70
2022-11-24T10:59:33.368Z,7.70
2022-11-24T11:02:02.058Z,7.70
2022-11-24T11:04:31.726Z,7.80
2022-11-24T11:07:17.150Z,7.80
2022-11-24T11:09:45.656Z,7.80
2022-11-24T11:12:42.913Z,7.80
2022-11-24T11:15:27.427Z,7.90
2022-11-24T11:17:59.018Z,7.90
2022-11-24T11:20:30.931Z,8.00
2022-11-24T11:23:03.177Z,8.00
2022-11-24T11:25:34.374Z,8.00
2022-11-24T11:28:28.841Z,8.00
2022-11-24T11:34:07.385Z,8.10
2022-11-24T11:36:41.607Z,8.10
2022-11-24T11:39:23.963Z,8.20
2022-11-24T11:41:56.951Z,8.20
2022-11-24T11:44:35.796Z,8.20
2022-11-24T11:47:15.077Z,8.30
2022-11-24T11:49:43.179Z,8.20
2022-11-24T11:52:41.892Z,8.30
2022-11-24T11:55:34.588Z,8.30
2022-11-24T11:58:15.999Z,8.30
2022-11-24T12:00:54.431Z,8.40
2022-11-24T12:03:47.347Z,8.40
2022-11-24T12:06:29.827Z,8.50
2022-11-24T12:09:26.275Z,8.50
2022-11-24T12:12:09.835Z,8.50
2022-11-24T12:14:45.189Z,8.60
2022-11-24T12:17:22.339Z,8.60
2022-11-24T12:20:08.318Z,8.60
2022-11-24T12:22:45.034Z,8.70
2022-11-24T12:25:24.038Z,8.70
2022-11-24T12:28:04.377Z,8.70
2022-11-24T12:30:41.561Z,8.70
2022-11-24T12:33:23.399Z,8.80
2022-11-24T12:36:03.523Z,8.80
2022-11-24T12:38:52.866Z,8.80
2022-11-24T12:41:45.521Z,8.80
2022-11-24T12:44:31.849Z,8.90
2022-11-24T12:47:13.342Z,8.90
2022-11-24T12:49:53.592Z,8.90
2022-11-24T12:52:26.789Z,8.90
2022-11-24T12:54:55.861Z,8.90
2022-11-24T12:57:30.392Z,8.90
2022-11-24T13:00:05.258Z,8.90
2022-11-24T13:02:46.356Z,8.90
2022-11-24T13:05:24.223Z,8.90
2022-11-24T13:07:58.686Z,8.90
2022-11-24T13:13:27.423Z,9.00
2022-11-24T13:19:10.752Z,9.00
2022-11-24T13:22:02.806Z,8.90
2022-11-24T13:24:33.754Z,8.90
2022-11-24T13:27:28.513Z,8.90
2022-11-24T13:29:56.594Z,8.90
2022-11-24T13:33:02.228Z,8.90
2022-11-24T13:35:30.534Z,8.90
2022-11-24T13:37:58.911Z,9.00
2022-11-24T13:40:54.291Z,9.00
2022-11-24T13:43:28.304Z,9.00
2022-11-24T13:45:56.345Z,9.00
2022-11-24T13:49:03.043Z,9.00
2022-11-24T13:51:31.030Z,9.00
2022-11-24T13:54:01.074Z,9.00
2022-11-24T13:56:31.769Z,9.00
2022-11-24T13:59:16.421Z,9.00
2022-11-24T14:01:46.847Z,9.00
2022-11-24T14:04:32.618Z,9.00
2022-11-24T14:07:08.427Z,9.00
2022-11-24T14:09:42.286Z,9.00
2022-11-24T14:12:16.009Z,9.00
2022-11-24T14:14:45.467Z,9.00
2022-11-24T14:17:19.144Z,9.00
2022-11-24T14:19:50.257Z,9.00
2022-11-24T14:22:21.212Z,9.00
2022-11-24T14:24:54.920Z,9.00
2022-11-24T14:27:31.257Z,8.90
2022-11-24T14:30:01.207Z,8.90
2022-11-24T14:32:29.540Z,8.90
2022-11-24T14:34:59.203Z,8.90
2022-11-24T14:37:27.375Z,8.90
2022-11-24T14:39:55.385Z,8.90
2022-11-24T14:42:27.165Z,8.90
2022-11-24T14:44:56.994Z,8.80
2022-11-24T14:47:31.740Z,8.80
2022-11-24T14:50:10.389Z,8.80
2022-11-24T14:52:45.700Z,8.80
2022-11-24T14:55:26.360Z,8.80
2022-11-24T14:57:54.376Z,8.80
2022-11-24T15:00:28.730Z,8.80
2022-11-24T15:03:09.113Z,8.70
2022-11-24T15:05:54.759Z,8.70
2022-11-24T15:08:24.205Z,8.70
2022-11-24T15:10:58.473Z,8.70
2022-11-24T15:13:27.086Z,8.70
2022-11-24T15:16:02.060Z,8.70
2022-11-24T15:18:37.356Z,8.70
2022-11-24T15:21:06.942Z,8.70
2022-11-24T15:23:35.842Z,8.70
2022-11-24T15:26:33.046Z,8.70
2022-11-24T15:29:03.415Z,8.70
2022-11-24T15:31:31.830Z,8.70
2022-11-24T15:33:59.852Z,8.60
2022-11-24T15:36:29.199Z,8.60
2022-11-24T15:38:57.223Z,8.60
2022-11-24T15:41:29.329Z,8.60
2022-11-24T15:43:59.923Z,8.50
2022-11-24T15:46:28.671Z,8.50
2022-11-24T15:48:57.219Z,8.40
2022-11-24T15:51:27.124Z,8.40
2022-11-24T15:54:01.014Z,8.30
2022-11-24T15:56:32.921Z,8.30
2022-11-24T15:59:01.339Z,8.20
2022-11-24T16:01:32.316Z,8.20
2022-11-24T16:04:00.497Z,8.10
2022-11-24T16:06:28.516Z,8.00
2022-11-24T16:08:59.038Z,8.00
2022-11-24T16:11:27.723Z,7.90
2022-11-24T16:13:55.777Z,7.90
2022-11-24T16:16:25.648Z,7.80
2022-11-24T16:18:53.855Z,7.80
2022-11-24T16:21:21.901Z,7.70
2022-11-24T16:23:50.046Z,7.70
2022-11-24T16:26:19.420Z,7.60
2022-11-24T16:28:47.487Z,7.60
2022-11-24T16:31:16.204Z,7.60
2022-11-24T16:33:45.489Z,7.60
2022-11-24T16:36:13.836Z,7.60
2022-11-24T16:38:41.886Z,7.60
2022-11-24T16:41:10.353Z,7.50
2022-11-24T16:43:39.983Z,7.50
2022-11-24T16:46:18.996Z,7.40
2022-11-24T16:48:48.086Z,7.30
2022-11-24T16:51:16.833Z,7.20
2022-11-24T16:53:45.376Z,7.10
2022-11-24T16:56:14.726Z,7.10
2022-11-24T16:58:44.120Z,7.10
2022-11-24T17:01:14.240Z,7.00
2022-11-24T17:03:42.919Z,7.00
2022-11-24T17:06:13.054Z,6.90
2022-11-24T17:08:41.852Z,6.90
2022-11-24T17:11:11.203Z,6.80
2022-11-24T17:13:39.974Z,6.80
2022-11-24T17:16:12.880Z,6.70
2022-11-24T17:18:41.734Z,6.70
2022-11-24T17:21:13.876Z,6.70
2022-11-24T17:23:42.441Z,6.70
2022-11-24T17:26:13.779Z,6.70
2022-11-24T17:28:42.424Z,6.60
2022-11-24T17:31:18.745Z,6.60
2022-11-24T17:33:46.768Z,6.60
2022-11-24T17:36:14.761Z,6.60
2022-11-24T17:38:42.768Z,6.60
2022-11-24T17:41:11.302Z,6.60
2022-11-24T17:43:39.477Z,6.60
2022-11-24T17:46:07.944Z,6.70
2022-11-24T17:48:37.697Z,6.60
2022-11-24T17:51:07.866Z,6.70
2022-11-24T17:53:38.117Z,6.70
2022-11-24T17:56:07.977Z,6.70
2022-11-24T17:58:42.546Z,6.70
2022-11-24T18:01:12.352Z,6.70
2022-11-24T18:03:43.371Z,6.80
2022-11-24T18:06:14.498Z,6.80
2022-11-24T18:08:45.375Z,6.80
2022-11-24T18:11:15.716Z,6.80
2022-11-24T18:14:01.482Z,6.80
2022-11-24T18:16:31.877Z,6.80
2022-11-24T18:19:11.438Z,6.80
2022-11-24T18:21:41.748Z,6.80
2022-11-24T18:24:11.970Z,6.90
2022-11-24T18:26:41.892Z,6.80
2022-11-24T18:29:11.384Z,6.80
2022-11-24T18:31:39.895Z,6.90
2022-11-24T18:34:10.486Z,6.90
2022-11-24T18:36:39.210Z,6.90
2022-11-24T18:39:09.947Z,6.80
2022-11-24T18:41:38.767Z,6.90
2022-11-24T18:44:08.756Z,6.90
2022-11-24T18:46:37.765Z,6.90
2022-11-24T18:49:07.467Z,6.90
2022-11-24T18:51:37.857Z,6.90
2022-11-24T18:54:07.153Z,6.90
2022-11-24T18:56:35.876Z,6.90
2022-11-24T18:59:04.413Z,6.90
2022-11-24T19:01:33.732Z,6.90
2022-11-24T19:04:04.388Z,6.90
2022-11-24T19:06:34.812Z,6.90
2022-11-24T19:09:08.868Z,7.00
2022-11-24T19:11:39.584Z,7.00
2022-11-24T19:14:10.804Z,7.00
2022-11-24T19:16:39.600Z,7.00
2022-11-24T19:19:08.795Z,7.00
2022-11-24T19:21:39.453Z,7.00
2022-11-24T19:24:11.244Z,7.00
2022-11-24T19:26:40.427Z,7.00
2022-11-24T19:29:09.682Z,7.00
2022-11-24T19:31:39.886Z,7.00
2022-11-24T19:34:09.033Z,7.10
2022-11-24T19:36:37.788Z,7.10
2022-11-24T19:39:06.701Z,7.10
2022-11-24T19:41:36.889Z,7.10
2022-11-24T19:44:05.556Z,7.10
2022-11-24T19:46:34.028Z,7.00
2022-11-24T19:49:04.869Z,7.10
2022-11-24T19:51:34.860Z,7.00
2022-11-24T19:54:04.193Z,7.00
2022-11-24T19:56:36.471Z,7.00
2022-11-24T19:59:06.133Z,6.90
2022-11-24T20:01:37.312Z,6.90
2022-11-24T20:04:07.248Z,6.90
2022-11-24T20:06:37.627Z,6.80
2022-11-24T20:09:08.466Z,6.80
2022-11-24T20:11:38.933Z,6.80
2022-11-24T20:14:08.438Z,6.70
2022-11-24T20:16:37.014Z,6.70
2022-11-24T20:19:07.723Z,6.70
2022-11-24T20:21:37.552Z,6.70
2022-11-24T20:24:08.174Z,6.60
2022-11-24T20:26:41.298Z,6.60
2022-11-24T20:29:11.629Z,6.60
2022-11-24T20:31:42.366Z,6.50
2022-11-24T20:34:11.237Z,6.50
2022-11-24T20:36:41.613Z,6.50
2022-11-24T20:39:13.118Z,6.50
2022-11-24T20:41:43.380Z,6.40
2022-11-24T20:44:15.422Z,6.40
2022-11-24T20:46:45.945Z,6.40
2022-11-24T20:49:16.550Z,6.40
2022-11-24T20:51:47.209Z,6.40
2022-11-24T20:54:17.657Z,6.30
2022-11-24T20:56:48.518Z,6.30
2022-11-24T20:59:19.776Z,6.30
2022-11-24T21:01:50.096Z,6.30
2022-11-24T21:04:21.095Z,6.20
2022-11-24T21:06:49.347Z,6.20
2022-11-24T21:09:17.405Z,6.20
2022-11-24T21:11:47.453Z,6.10
2022-11-24T21:14:15.838Z,6.10
2022-11-24T21:16:44.221Z,6.10
2022-11-24T21:19:13.911Z,6.10
2022-11-24T21:21:42.993Z,6.00
2022-11-24T21:24:14.087Z,6.00
2022-11-24T21:26:42.918Z,6.00
2022-11-24T21:29:14.173Z,6.00
2022-11-24T21:31:42.567Z,5.90
2022-11-24T21:34:11.068Z,5.90
2022-11-24T21:36:41.705Z,5.90
2022-11-24T21:39:13.163Z,5.90
2022-11-24T21:41:41.369Z,5.90
2022-11-24T21:44:09.449Z,5.90
2022-11-24T21:46:44.153Z,5.90
2022-11-24T21:49:15.977Z,5.90
2022-11-24T21:51:43.979Z,5.90
2022-11-24T21:54:11.938Z,5.90
2022-11-24T21:56:39.922Z,5.90
2022-11-24T21:59:08.152Z,5.90
2022-11-24T22:01:36.190Z,5.90
2022-11-24T22:04:05.899Z,5.90
2022-11-24T22:06:34.219Z,5.90
2022-11-24T22:09:02.213Z,5.90
2022-11-24T22:11:30.219Z,5.90
2022-11-24T22:13:58.226Z,5.90
2022-11-24T22:16:26.718Z,5.90
2022-11-24T22:18:54.849Z,5.90
2022-11-24T22:21:29.894Z,5.90
2022-11-24T22:23:58.022Z,5.90
2022-11-24T22:26:26.767Z,5.90
2022-11-24T22:28:55.771Z,5.90
2022-11-24T22:31:25.655Z,5.90
2022-11-24T22:33:54.738Z,5.90
2022-11-24T22:36:25.758Z,5.90
2022-11-24T22:38:55.308Z,5.80
2022-11-24T22:41:23.835Z,5.80
2022-11-24T22:43:52.573Z,5.80
2022-11-24T22:46:22.958Z,5.80
2022-11-24T22:48:52.873Z,5.80
2022-11-24T22:51:24.598Z,5.80
2022-11-24T22:53:54.163Z,5.80
2022-11-24T22:56:22.894Z,5.80
2022-11-24T22:58:51.385Z,5.80
2022-11-24T23:01:21.067Z,5.80
2022-11-24T23:03:49.815Z,5.80
2022-11-24T23:06:20.260Z,5.80
2022-11-24T23:08:50.149Z,5.80
2022-11-24T23:11:19.760Z,5.80
2022-11-24T23:13:48.353Z,5.80
2022-11-24T23:16:17.894Z,5.80
2022-11-24T23:18:52.346Z,5.80
2022-11-24T23:21:23.621Z,5.80
2022-11-24T23:23:53.451Z,5.80
2022-11-24T23:26:23.434Z,5.70
2022-11-24T23:28:51.954Z,5.70
2022-11-24T23:31:21.822Z,5.70
2022-11-24T23:33:49.866Z,5.70
2022-11-24T23:36:19.720Z,5.60
2022-11-24T23:38:48.576Z,5.60
2022-11-24T23:41:20.386Z,5.70
2022-11-24T23:43:48.616Z,5.60
2022-11-24T23:46:20.440Z,5.60
2022-11-24T23:48:49.526Z,5.60
2022-11-24T23:51:19.271Z,5.60
2022-11-24T23:53:47.797Z,5.50
2022-11-24T23:56:19.264Z,5.50
2022-11-24T23:58:47.569Z,5.50
